Tete-A-La-Baleine, Canada
Current Conditions -  °F | °C
As of 9:14 PM on Tuesday 27 Jan 2015 (Local Time) from CWDH Reporting Station
Clear Clear  
Wind Chill: -6°   Ceiling: Unl
Heat Index: 13°   Visibility: 5mi
Dew Point:   Wind: 21mph
Humidity: 68%   Direction: 60°ENE
Pressure: 30.08"   Gusts: 28mph
Location:  50.7°N, 59.33°W
Report Text: CWDH 280114Z AUTO 06018G24KT 5SM NSC M11/M16 A3008 RMK PK WND 05026/// T11081157 WSI/SWOB
Loading
Personal Weather Stations






























Interactive Weather Map New forecast layout! Learn more

10-Day Weather Forecast

Advertisements
Track Severe Weather on mobile